• Join FlightAware (Why Join?)
  • Login
  • US Flag 
11:43AM EDT


 

Airport Tracker/Info


-or-


 

Live Flight TrackerFlight Track Log ✈ EGF3352 ✈ 02-May-2012 ✈ KGPT - KDFW

Flight Track Log - Related Links

Times and Time Zones

All times are in EDT time to prevent confusion due to time zone crossing. See the EGF3352 flight status page for this flight to view local times or setup timezone preferences in your user account.

Time Position Orientation Groundspeed Altitude Reporting Facility
EDT Latitude Longitude Course Direction KTS MPH feet Rate Location/Type
03:31PM 30.4141 -89.0963 162° South  Level FlightAware Approximate
03:32PM 30.4403 -89.2016 131° Southeast  Level FlightAware Approximate
03:33PM 30.3383 -89.0672 282° West 238 274 3,000  Level Houston Center
03:34PM 30.3522 -89.1461 288° West 281 323 5,500 2,340 Climbing Houston Center
03:35PM 30.3767 -89.2322 289° West 286 329 7,700 2,160 Climbing Houston Center
03:36PM 30.4033 -89.3206 287° West 286 329 9,900 1,980 Climbing Houston Center
03:37PM 30.4278 -89.4164 279° West 298 343 11,700 1,620 Climbing Houston Center
03:38PM 30.4419 -89.5172 284° West 311 358 13,200 1,320 Climbing Houston Center
03:39PM 30.4644 -89.6203 281° West 322 371 14,400 1,320 Climbing Houston Center
03:40PM 30.4828 -89.7308 281° West 340 391 15,900 1,380 Climbing Houston Center
03:41PM 30.4989 -89.8317 281° West 354 407 17,200 1,500 Climbing Houston Center
03:42PM 30.5169 -89.9447 290° West 354 407 19,000 1,260 Climbing Houston Center
03:43PM 30.5497 -90.0503 304° West 354 407 19,800 840 Climbing Houston Center
03:44PM 30.6072 -90.1483 310° West 367 422 20,700 1,140 Climbing Houston Center
03:45PM 30.6750 -90.2414 314° West 367 422 22,100 1,200 Climbing Houston Center
03:46PM 30.7489 -90.3297 320° Northwest 373 429 23,100 900 Climbing Houston Center
03:47PM 30.8269 -90.4061 302° West 373 429 23,900 720 Climbing Houston Center
03:48PM 30.8800 -90.5069 284° West 367 422 24,600 660 Climbing Houston Center
03:49PM 30.9039 -90.6231 275° West 356 410 25,300 780 Climbing Houston Center
03:50PM 30.9131 -90.7439 274° West 363 418 26,200 840 Climbing Houston Center
03:51PM 30.9200 -90.8647 274° West 374 430 27,000 840 Climbing Houston Center
03:52PM 30.9269 -90.9833 272° West 374 430 27,900 780 Climbing Houston Center
03:53PM 30.9317 -91.1189 267° West 374 430 28,600 660 Climbing Houston Center
03:54PM 30.9258 -91.2400 263° West 374 430 29,300 600 Climbing Houston Center
03:55PM 30.9117 -91.3658 282° West 385 443 29,800 540 Climbing Houston Center
03:56PM 30.9347 -91.4942 291° West 392 451 30,400 600 Climbing Houston Center
03:57PM 30.9767 -91.6200 290° West 397 457 31,000 540 Climbing Houston Center
03:58PM 31.0183 -91.7508 290° West 416 479 31,500 480 Climbing Houston Center
03:59PM 31.0600 -91.8817 291° West 425 489 32,000 300 Climbing Houston Center
04:00PM 31.1033 -92.0150 290° West 435 501 32,200 600 Climbing Houston Center
04:01PM 31.1428 -92.1414 291° West 447 514 33,200 900 Climbing Houston Center
04:02PM 31.1839 -92.2678 293° West 447 514 34,000 540 Climbing Houston Center
04:03PM 31.2314 -92.3992 303° West 447 514 34,300 720 Climbing Houston Center
04:04PM 31.2933 -92.5114 303° West 427 491 35,500 840 Climbing Houston Center
04:05PM 31.3550 -92.6211 301° West 412 474 36,000 240 Climbing Houston Center
04:06PM 31.4106 -92.7289 291° West 406 467 36,000  Level Houston Center
04:07PM 31.4514 -92.8533 290° West 401 461 36,000  Level Houston Center
04:08PM 31.4897 -92.9781 291° West 401 461 36,000  Level Houston Center
04:09PM 31.5281 -93.0978 290° West 401 461 36,000  Level Houston Center
04:11PM 31.5981 -93.3258 290° West 409 471 36,000  Level Fort Worth Center
04:12PM 31.6378 -93.4558 290° West 419 482 36,000  Level Fort Worth Center
04:13PM 31.6772 -93.5833 289° West 419 482 36,000  Level Fort Worth Center
04:14PM 31.7142 -93.7089 289° West 419 482 36,000  Level Fort Worth Center
04:15PM 31.7511 -93.8319 283° West 419 482 36,000  Level Fort Worth Center
04:16PM 31.7756 -93.9556 284° West 406 467 36,000  Level Fort Worth Center
04:17PM 31.7994 -94.0672 283° West 401 461 36,000  Level Fort Worth Center
04:18PM 31.8236 -94.1958 284° West 401 461 36,000  Level Fort Worth Center
04:19PM 31.8497 -94.3219 282° West 401 461 36,000  Level Fort Worth Center
04:20PM 31.8739 -94.4533 283° West 401 461 36,000  Level Fort Worth Center
04:21PM 31.9000 -94.5894 283° West 417 480 36,000  Level Fort Worth Center
04:22PM 31.9258 -94.7233 283° West 417 480 36,000  Level Fort Worth Center
04:23PM 31.9514 -94.8547 281° West 417 480 36,000  Level Fort Worth Center
04:24PM 31.9728 -94.9839 284° West 417 480 36,000  Level Fort Worth Center
04:25PM 32.0003 -95.1156 282° West 417 480 36,000  Level Fort Worth Center
04:26PM 32.0236 -95.2472 283° West 411 473 36,000  Level Fort Worth Center
04:27PM 32.0486 -95.3767 291° West 411 473 36,000 -360 Level Fort Worth Center
04:28PM 32.0903 -95.5056 292° West 411 473 35,300 -1,800 Descending Fort Worth Center
04:29PM 32.1342 -95.6372 291° West 417 480 32,500 -2,760 Descending Fort Worth Center
04:30PM 32.1775 -95.7689 289° West 417 480 29,800 -2,700 Descending Fort Worth Center
04:31PM 32.2147 -95.8983 291° West 417 480 27,100 -2,700 Descending Fort Worth Center
04:32PM 32.2536 -96.0206 292° West 417 480 24,400 -2,640 Descending Fort Worth Center
04:33PM 32.2944 -96.1419 289° West 373 429 21,500 -2,520 Descending FAA TRACON SMA TRACON (SMA)
04:34PM 32.3178 -96.2228 290° West 374 430 19,800 -2,520 Descending FAA TRACON SMA TRACON (SMA)
04:34PM 32.3422 -96.3011 290° West 367 422 18,200 -2,520 Descending FAA TRACON SMA TRACON (SMA)
04:35PM 32.3644 -96.3733 294° West 380 437 16,600 -2,580 Descending FAA TRACON SMA TRACON (SMA)
04:36PM 32.3956 -96.4547 314° West 395 455 14,900 -2,520 Descending FAA TRACON SMA TRACON (SMA)
04:36PM 32.4472 -96.5181 314° West 384 442 13,200 -2,400 Descending FAA TRACON SMA TRACON (SMA)
04:37PM 32.4908 -96.5725 314° West 369 425 11,700 -1,740 Descending FAA TRACON SMA TRACON (SMA)
04:38PM 32.5394 -96.6314 314° West 359 413 10,900 -540 Descending FAA TRACON SMA TRACON (SMA)
04:38PM 32.5869 -96.6892 315° West 353 406 11,000 60 Climbing FAA TRACON SMA TRACON (SMA)
04:39PM 32.6303 -96.7406 314° West 357 411 11,000 -120 Level FAA TRACON SMA TRACON (SMA)
04:40PM 32.6775 -96.7978 314° West 351 404 10,900 -120 Descending FAA TRACON SMA TRACON (SMA)
04:40PM 32.7172 -96.8469 313° West 290 334 10,900 -180 Level FAA TRACON SMA TRACON (SMA)
04:41PM 32.7475 -96.8858 344° North 255 293 10,700 -900 Descending FAA TRACON SMA TRACON (SMA)
04:42PM 32.7928 -96.9017 360° North 255 293 9,700 -1,500 Descending FAA TRACON SMA TRACON (SMA)
04:42PM 32.8361 -96.9019 North 253 291 8,800 -1,500 Descending FAA TRACON SMA TRACON (SMA)
04:43PM 32.8853 -96.9014 359° North 253 291 7,800 -1,560 Descending FAA TRACON SMA TRACON (SMA)
04:44PM 32.9336 -96.9025 352° North 251 289 6,700 -1,680 Descending FAA TRACON SMA TRACON (SMA)
04:44PM 32.9811 -96.9103 350° North 247 284 5,600 -1,320 Descending FAA TRACON SMA TRACON (SMA)
04:45PM 33.0233 -96.9192 316° Northwest 246 283 5,000 -540 Descending FAA TRACON SMA TRACON (SMA)
04:46PM 33.0536 -96.9536 316° Northwest 239 275 4,900 -180 Descending FAA TRACON SMA TRACON (SMA)